Time;durP1;ratioP1;P1;durP2;ratioP2;P2;SDS_P1;SDS_P2;PMS_P1;PMS_P2;Temp;Humidity;BMP_temperature;BMP_pressure;BME280_temperature;BME280_humidity;BME280_pressure;Samples;Min_cycle;Max_cycle;Signal;HPM_P1;HPM_P2
2022/03/29 00:00:16;;;;;;;9.87;8.47;;;11.30;55.50;;;;;;5035320;28;20488;-83
2022/03/29 00:02:44;;;;;;;12.47;9.77;;;11.30;55.80;;;;;;5035336;28;20827;-82
2022/03/29 00:05:10;;;;;;;9.70;8.70;;;11.30;55.80;;;;;;5035910;28;21075;-82
2022/03/29 00:07:37;;;;;;;13.00;9.47;;;11.30;55.50;;;;;;5029523;28;20453;-83
2022/03/29 00:10:07;;;;;;;10.43;8.40;;;11.30;55.50;;;;;;5014954;28;20477;-83
2022/03/29 00:12:35;;;;;;;11.87;8.97;;;11.30;55.40;;;;;;5026220;28;20452;-83
2022/03/29 00:15:02;;;;;;;10.57;9.27;;;11.20;55.40;;;;;;5035605;28;20467;-82
2022/03/29 00:17:28;;;;;;;10.67;9.57;;;11.20;55.20;;;;;;5035408;28;20461;-82
2022/03/29 00:19:55;;;;;;;13.80;9.13;;;11.20;55.20;;;;;;5035455;28;20482;-83
2022/03/29 00:22:22;;;;;;;11.57;8.80;;;11.10;55.00;;;;;;5034347;28;20467;-84
2022/03/29 00:24:48;;;;;;;13.17;9.13;;;11.20;55.00;;;;;;5027759;28;20485;-82
2022/03/29 00:27:17;;;;;;;11.13;10.03;;;11.30;55.00;;;;;;5015692;28;20468;-83
2022/03/29 00:29:43;;;;;;;13.10;10.47;;;11.30;54.80;;;;;;5015192;28;20457;-84
2022/03/29 00:32:10;;;;;;;10.37;8.87;;;11.30;54.30;;;;;;5014936;28;20457;-81
2022/03/29 00:34:37;;;;;;;10.57;9.57;;;11.40;55.30;;;;;;5015002;28;20449;-82
2022/03/29 00:37:04;;;;;;;15.33;8.67;;;11.40;56.10;;;;;;5014830;28;20540;-82
2022/03/29 00:39:31;;;;;;;11.57;9.87;;;11.40;55.60;;;;;;5015379;28;20464;-83
2022/03/29 00:41:58;;;;;;;11.60;9.37;;;11.30;55.30;;;;;;5024537;28;20484;-82
2022/03/29 00:44:31;;;;;;;10.53;8.63;;;11.30;54.00;;;;;;5036184;28;20481;-82
2022/03/29 00:46:58;;;;;;;15.93;9.83;;;11.30;54.60;;;;;;5026477;28;20477;-83
2022/03/29 00:49:24;;;;;;;11.80;10.20;;;11.40;54.70;;;;;;5035810;28;20456;-83
2022/03/29 00:51:55;;;;;;;11.60;9.60;;;11.40;53.90;;;;;;5035216;28;20482;-83
2022/03/29 00:54:22;;;;;;;10.77;8.63;;;11.40;54.70;;;;;;5035184;28;20437;-83
2022/03/29 00:56:49;;;;;;;10.53;9.53;;;11.30;54.40;;;;;;5032132;28;20460;-83
2022/03/29 00:59:15;;;;;;;12.83;10.30;;;11.30;54.50;;;;;;5015415;28;20457;-83
2022/03/29 01:01:44;;;;;;;14.73;11.40;;;11.40;54.60;;;;;;5014168;28;20832;-83
2022/03/29 01:04:11;;;;;;;10.90;9.80;;;11.40;54.80;;;;;;5014115;28;21029;-83
2022/03/29 01:06:38;;;;;;;12.43;9.03;;;11.30;55.20;;;;;;5034748;28;20459;-83
2022/03/29 01:09:05;;;;;;;13.40;11.77;;;11.30;55.10;;;;;;5034596;28;20456;-82
2022/03/29 01:11:32;;;;;;;10.87;9.77;;;11.30;55.20;;;;;;5034471;28;20819;-81
2022/03/29 01:14:00;;;;;;;11.37;9.57;;;11.20;55.10;;;;;;5033917;28;20946;-82
2022/03/29 01:19:15;;;;;;;9.70;8.73;;;11.20;55.60;;;;;;5034029;28;20499;-81
2022/03/29 01:21:45;;;;;;;10.40;9.40;;;11.20;55.20;;;;;;5033962;28;20472;-82
2022/03/29 01:24:15;;;;;;;12.90;9.97;;;11.20;55.40;;;;;;5034258;28;20840;-83
2022/03/29 01:26:42;;;;;;;12.00;9.20;;;11.20;55.40;;;;;;5034327;28;20456;-83
2022/03/29 01:29:09;;;;;;;9.83;8.90;;;11.10;55.70;;;;;;5034276;28;20460;-82
2022/03/29 01:31:37;;;;;;;13.20;10.80;;;11.10;55.80;;;;;;5033961;28;20571;-83
2022/03/29 01:34:06;;;;;;;13.50;11.10;;;11.10;55.60;;;;;;4994495;28;20446;-83
2022/03/29 01:36:33;;;;;;;11.40;9.97;;;11.10;55.50;;;;;;4994800;28;20450;-83
2022/03/29 01:38:59;;;;;;;14.10;11.13;;;11.10;55.30;;;;;;4994924;28;20457;-82
2022/03/29 01:41:30;;;;;;;10.63;9.53;;;11.10;55.40;;;;;;4995373;28;20478;-82
2022/03/29 01:43:57;;;;;;;10.37;8.67;;;11.00;55.80;;;;;;5027893;28;20561;-82
2022/03/29 01:46:24;;;;;;;13.30;11.37;;;10.90;56.00;;;;;;5035361;28;20463;-82
2022/03/29 01:48:51;;;;;;;11.80;10.10;;;11.00;56.00;;;;;;5035212;28;20496;-82
2022/03/29 01:51:18;;;;;;;11.80;10.30;;;10.90;56.00;;;;;;5034842;28;20476;-82
2022/03/29 01:53:46;;;;;;;11.10;9.63;;;10.90;56.60;;;;;;5015987;28;21001;-81
2022/03/29 01:56:13;;;;;;;13.00;10.40;;;10.90;56.50;;;;;;5015932;28;20468;-83
2022/03/29 01:58:41;;;;;;;13.23;9.90;;;10.90;56.50;;;;;;5015457;28;20835;-82
2022/03/29 02:01:08;;;;;;;9.70;8.80;;;10.90;56.50;;;;;;5014615;28;20481;-83
2022/03/29 02:03:34;;;;;;;12.13;9.60;;;10.80;56.30;;;;;;5014622;28;20460;-81
2022/03/29 02:06:01;;;;;;;11.73;9.33;;;10.70;56.60;;;;;;5024347;28;20459;-81
2022/03/29 02:08:28;;;;;;;10.13;8.63;;;10.70;56.80;;;;;;5034541;28;20455;-81
2022/03/29 02:10:55;;;;;;;15.33;10.17;;;10.70;56.90;;;;;;5025872;28;20838;-81
2022/03/29 02:13:22;;;;;;;14.40;10.30;;;10.60;56.30;;;;;;5015034;28;20460;-82
2022/03/29 02:15:50;;;;;;;14.37;11.00;;;10.60;56.70;;;;;;5014481;28;20847;-81
2022/03/29 02:18:17;;;;;;;13.87;10.10;;;10.60;56.80;;;;;;5015043;28;20453;-81
2022/03/29 02:20:44;;;;;;;13.40;8.30;;;10.70;57.00;;;;;;5015125;28;20978;-82
2022/03/29 02:23:14;;;;;;;15.50;11.37;;;10.60;56.80;;;;;;5014528;28;20985;-81
2022/03/29 02:25:41;;;;;;;9.77;7.67;;;10.60;56.40;;;;;;5020096;28;20484;-81
2022/03/29 02:28:08;;;;;;;11.50;10.10;;;10.60;56.00;;;;;;5034429;28;20459;-81
2022/03/29 02:30:36;;;;;;;13.47;9.90;;;10.60;56.50;;;;;;5030760;28;20473;-81
2022/03/29 02:33:04;;;;;;;10.70;9.70;;;10.60;57.00;;;;;;5015053;28;20456;-82
2022/03/29 02:35:30;;;;;;;14.00;11.60;;;10.60;56.80;;;;;;5020987;28;20820;-81
2022/03/29 02:37:57;;;;;;;10.40;9.47;;;10.50;56.90;;;;;;5042205;28;20439;-81
2022/03/29 02:40:24;;;;;;;10.95;9.57;;;10.60;56.80;;;;;;5031439;28;20556;-82
2022/03/29 02:42:53;;;;;;;13.63;10.63;;;10.50;56.90;;;;;;5031479;28;20212;-82
2022/03/29 02:45:21;;;;;;;11.57;9.60;;;10.50;57.50;;;;;;5008481;28;20493;-82
2022/03/29 02:47:50;;;;;;;13.60;10.00;;;10.50;57.80;;;;;;4998792;28;20477;-82
2022/03/29 02:50:20;;;;;;;11.83;10.30;;;10.40;57.80;;;;;;5035490;28;20472;-83
2022/03/29 02:52:48;;;;;;;13.10;10.97;;;10.40;57.80;;;;;;5038165;28;20448;-82
2022/03/29 02:55:15;;;;;;;11.90;10.60;;;10.40;57.90;;;;;;5019443;28;20490;-83
2022/03/29 02:57:42;;;;;;;13.50;10.90;;;10.40;57.70;;;;;;5018509;28;20452;-83
2022/03/29 03:00:11;;;;;;;13.70;10.07;;;10.30;57.30;;;;;;5018094;28;20916;-83
2022/03/29 03:02:38;;;;;;;12.60;10.50;;;10.20;55.90;;;;;;5018012;28;20789;-81
2022/03/29 03:05:06;;;;;;;12.00;10.40;;;10.20;56.80;;;;;;5033939;28;20485;-82
2022/03/29 03:07:34;;;;;;;12.50;9.73;;;10.20;56.70;;;;;;5037886;28;20463;-83
2022/03/29 03:10:01;;;;;;;15.60;11.07;;;10.30;57.00;;;;;;5036765;28;20479;-82
2022/03/29 03:12:28;;;;;;;11.93;9.90;;;10.30;57.40;;;;;;5036716;28;20458;-82
2022/03/29 03:14:54;;;;;;;11.97;10.73;;;10.30;57.90;;;;;;5018314;28;20456;-81
2022/03/29 03:17:21;;;;;;;14.00;10.83;;;10.30;57.90;;;;;;5018196;28;20452;-81
2022/03/29 03:19:48;;;;;;;11.07;9.93;;;10.20;58.00;;;;;;5038109;28;20800;-81
2022/03/29 03:22:14;;;;;;;11.10;10.10;;;10.20;58.20;;;;;;5036989;28;20463;-81
2022/03/29 03:24:43;;;;;;;11.13;9.87;;;10.10;58.10;;;;;;5019229;28;20493;-82
2022/03/29 03:27:09;;;;;;;11.83;10.60;;;10.10;58.30;;;;;;5018079;28;20452;-82
2022/03/29 03:29:36;;;;;;;12.53;9.73;;;10.10;57.90;;;;;;5034985;28;20455;-82
2022/03/29 03:32:03;;;;;;;11.13;9.43;;;10.10;58.50;;;;;;5019479;28;20977;-81
2022/03/29 03:34:30;;;;;;;12.53;9.87;;;10.10;58.10;;;;;;5017728;28;20450;-82
2022/03/29 03:36:58;;;;;;;11.90;10.00;;;10.10;58.10;;;;;;5018083;28;20456;-82
2022/03/29 03:39:25;;;;;;;11.13;10.00;;;10.10;57.90;;;;;;5017692;28;20463;-82
2022/03/29 03:41:53;;;;;;;11.57;10.40;;;10.20;57.70;;;;;;5017522;28;21136;-81
2022/03/29 03:44:20;;;;;;;13.10;11.80;;;10.20;56.70;;;;;;5016682;28;20464;-81
2022/03/29 03:46:46;;;;;;;13.87;12.47;;;10.00;56.50;;;;;;5016909;28;20455;-80
2022/03/29 03:49:13;;;;;;;14.93;9.23;;;10.10;56.30;;;;;;5017929;28;20459;-81
2022/03/29 03:51:40;;;;;;;12.70;10.00;;;10.10;56.20;;;;;;5017057;28;20484;-82
2022/03/29 03:54:07;;;;;;;9.97;8.93;;;10.10;56.00;;;;;;5033278;28;21009;-82
2022/03/29 03:56:34;;;;;;;12.10;9.33;;;10.20;56.30;;;;;;5036848;28;20818;-82
2022/03/29 03:59:02;;;;;;;11.77;9.70;;;10.20;56.60;;;;;;5022356;28;20481;-81
2022/03/29 04:01:29;;;;;;;11.23;9.13;;;10.30;57.20;;;;;;5016205;28;20488;-81
2022/03/29 04:03:55;;;;;;;10.40;9.20;;;10.30;57.00;;;;;;5029904;28;20457;-82
2022/03/29 04:06:22;;;;;;;15.23;10.30;;;10.30;56.90;;;;;;5034823;28;20499;-82
2022/03/29 04:08:49;;;;;;;12.67;11.37;;;10.30;56.70;;;;;;5024369;28;20460;-83
2022/03/29 04:11:16;;;;;;;11.90;10.70;;;10.30;56.90;;;;;;5018914;28;20481;-82
2022/03/29 04:13:42;;;;;;;9.23;8.27;;;10.30;57.00;;;;;;5021434;28;20454;-82
2022/03/29 04:16:10;;;;;;;11.67;9.17;;;10.30;56.80;;;;;;5021724;28;20467;-83
2022/03/29 04:18:37;;;;;;;11.33;9.13;;;10.10;56.80;;;;;;5036015;28;20512;-83
2022/03/29 04:21:05;;;;;;;10.87;9.83;;;10.00;57.30;;;;;;5034450;28;20477;-83
2022/03/29 04:23:31;;;;;;;13.23;11.03;;;9.80;59.40;;;;;;5023802;28;20456;-82
2022/03/29 04:25:58;;;;;;;11.03;9.70;;;9.70;59.50;;;;;;5017025;28;21034;-82
2022/03/29 04:28:25;;;;;;;9.07;8.17;;;9.70;59.30;;;;;;5029604;28;20467;-82
2022/03/29 04:30:55;;;;;;;15.20;9.27;;;9.80;59.00;;;;;;5035484;28;20477;-82
2022/03/29 04:33:23;;;;;;;11.23;10.03;;;9.80;59.60;;;;;;5026096;28;20451;-83
2022/03/29 04:35:50;;;;;;;12.77;9.87;;;9.80;59.70;;;;;;5023803;28;20451;-83
2022/03/29 04:38:17;;;;;;;11.27;9.00;;;9.80;60.00;;;;;;5036731;28;20465;-82
2022/03/29 04:40:43;;;;;;;9.90;8.90;;;9.80;59.80;;;;;;5024391;28;21059;-82
2022/03/29 04:43:10;;;;;;;12.87;10.87;;;9.90;60.10;;;;;;5017141;28;20457;-82
2022/03/29 04:45:37;;;;;;;13.17;9.50;;;9.90;60.30;;;;;;5016151;28;20493;-82
2022/03/29 04:48:04;;;;;;;11.20;10.13;;;9.90;60.30;;;;;;5016029;28;20980;-82
2022/03/29 04:50:32;;;;;;;12.90;11.63;;;9.90;61.60;;;;;;5015331;28;20558;-82
2022/03/29 04:52:59;;;;;;;12.80;10.23;;;9.90;62.00;;;;;;5016223;28;20466;-82
2022/03/29 04:55:26;;;;;;;13.60;10.90;;;9.90;61.90;;;;;;5016578;28;20451;-82
2022/03/29 04:57:53;;;;;;;13.17;9.90;;;9.90;62.20;;;;;;5023624;28;20505;-82
2022/03/29 05:00:21;;;;;;;14.17;11.47;;;9.80;61.30;;;;;;5030341;28;20479;-82
2022/03/29 05:02:48;;;;;;;17.30;13.63;;;9.80;61.40;;;;;;5016196;28;20459;-82
2022/03/29 05:05:16;;;;;;;15.67;11.37;;;9.70;61.80;;;;;;5019106;28;20856;-82
2022/03/29 05:07:44;;;;;;;12.67;11.37;;;9.70;62.20;;;;;;5028318;28;20456;-83
2022/03/29 05:10:13;;;;;;;11.23;9.37;;;9.50;62.60;;;;;;5016107;28;20569;-82
2022/03/29 05:12:40;;;;;;;12.67;11.37;;;9.50;62.90;;;;;;5016028;28;20462;-82
2022/03/29 05:15:08;;;;;;;14.27;11.87;;;9.60;63.10;;;;;;5017226;28;20458;-83
2022/03/29 05:17:36;;;;;;;12.70;11.37;;;9.50;63.50;;;;;;5016791;28;20451;-82
2022/03/29 05:20:03;;;;;;;12.00;10.80;;;9.50;63.80;;;;;;5022013;28;20514;-83
2022/03/29 05:22:30;;;;;;;13.48;9.73;;;9.50;63.70;;;;;;5036168;28;20454;-83
2022/03/29 05:24:58;;;;;;;11.77;10.52;;;9.50;64.00;;;;;;5037546;28;20747;-81
2022/03/29 05:27:25;;;;;;;10.97;9.33;;;9.50;64.20;;;;;;5037554;28;20218;-83
2022/03/29 05:29:52;;;;;;;11.65;10.48;;;9.40;64.00;;;;;;5037994;28;20474;-83
2022/03/29 05:32:19;;;;;;;11.00;10.00;;;9.40;63.90;;;;;;5038571;28;20207;-82
2022/03/29 05:34:46;;;;;;;11.83;9.50;;;9.40;63.90;;;;;;5039644;28;20473;-83
2022/03/29 05:37:14;;;;;;;13.93;10.50;;;9.40;64.10;;;;;;5033828;28;20829;-84
2022/03/29 05:39:43;;;;;;;18.20;12.07;;;9.50;64.70;;;;;;5019808;28;20451;-83
2022/03/29 05:42:11;;;;;;;12.77;9.57;;;9.50;66.00;;;;;;5019449;28;20829;-82
2022/03/29 05:44:38;;;;;;;13.37;10.43;;;9.50;66.30;;;;;;5019380;28;20860;-82
2022/03/29 05:49:50;;;;;;;12.60;10.20;;;9.60;66.80;;;;;;5017173;28;20449;-83
2022/03/29 05:52:16;;;;;;;14.57;10.57;;;9.60;67.00;;;;;;5019494;28;20208;-83
2022/03/29 05:54:45;;;;;;;14.10;12.13;;;9.60;65.50;;;;;;5030837;28;20991;-83
2022/03/29 05:57:14;;;;;;;12.80;11.50;;;9.60;65.40;;;;;;5021057;28;20963;-83
2022/03/29 05:59:41;;;;;;;16.47;11.43;;;9.60;65.80;;;;;;5039233;28;20940;-83
2022/03/29 06:02:08;;;;;;;12.90;10.40;;;9.60;68.00;;;;;;5034321;28;20902;-83
2022/03/29 06:04:35;;;;;;;13.43;11.50;;;9.60;69.50;;;;;;5017837;28;20638;-83
2022/03/29 06:07:04;;;;;;;17.57;14.67;;;9.60;70.10;;;;;;5018326;28;20488;-82
2022/03/29 06:09:31;;;;;;;21.70;15.73;;;9.60;69.60;;;;;;5021415;28;20455;-82
2022/03/29 06:11:58;;;;;;;22.00;15.00;;;9.80;67.70;;;;;;5025015;28;20455;-83
2022/03/29 06:14:26;;;;;;;16.93;14.27;;;9.90;67.00;;;;;;5040802;28;20454;-83
2022/03/29 06:16:52;;;;;;;16.07;14.10;;;10.00;65.30;;;;;;5039404;28;20458;-83
2022/03/29 06:19:19;;;;;;;18.77;15.10;;;10.10;65.80;;;;;;5021463;28;20452;-83
2022/03/29 06:21:46;;;;;;;16.40;14.10;;;10.20;65.20;;;;;;5020267;28;20479;-84
2022/03/29 06:24:13;;;;;;;14.97;12.97;;;10.30;65.10;;;;;;5025200;28;20450;-84
2022/03/29 06:26:40;;;;;;;14.23;12.30;;;10.50;65.00;;;;;;5020592;28;20485;-83
2022/03/29 06:29:08;;;;;;;13.00;11.53;;;10.60;63.80;;;;;;5021053;28;20447;-83
2022/03/29 06:31:36;;;;;;;15.43;11.70;;;10.70;62.20;;;;;;5020336;28;20491;-83
2022/03/29 06:34:04;;;;;;;12.30;11.07;;;10.80;62.00;;;;;;5011812;28;20508;-84
2022/03/29 06:36:32;;;;;;;14.67;12.00;;;10.90;62.50;;;;;;5011458;28;20473;-84
2022/03/29 06:38:59;;;;;;;14.53;12.70;;;11.00;61.90;;;;;;5008673;28;20448;-84
2022/03/29 06:41:26;;;;;;;15.53;11.60;;;11.10;61.70;;;;;;5012499;28;20474;-83
2022/03/29 06:43:53;;;;;;;19.97;11.57;;;11.20;61.30;;;;;;5007483;28;20453;-84
2022/03/29 06:46:21;;;;;;;16.40;11.60;;;11.40;60.60;;;;;;5007543;28;20478;-84
2022/03/29 06:48:50;;;;;;;11.33;9.57;;;11.50;60.30;;;;;;5013248;28;20462;-83
2022/03/29 06:51:18;;;;;;;13.27;9.83;;;11.50;59.70;;;;;;5014079;28;20469;-84
2022/03/29 06:53:45;;;;;;;13.00;9.77;;;11.60;59.60;;;;;;5008955;28;20462;-84
2022/03/29 06:56:15;;;;;;;15.73;13.30;;;11.60;58.80;;;;;;5017501;28;20457;-82
2022/03/29 06:58:45;;;;;;;12.90;11.00;;;11.70;58.60;;;;;;5017097;28;20442;-83
2022/03/29 07:01:12;;;;;;;16.73;11.77;;;11.80;59.20;;;;;;5019797;28;20491;-82
2022/03/29 07:03:38;;;;;;;13.43;11.03;;;11.70;58.70;;;;;;5020322;28;20453;-81
2022/03/29 07:06:06;;;;;;;14.13;11.10;;;11.90;58.80;;;;;;5018659;28;20578;-83
2022/03/29 07:08:33;;;;;;;11.43;10.27;;;12.00;58.10;;;;;;5018423;28;20449;-83
2022/03/29 07:11:17;;;;;;;15.83;10.13;;;12.10;57.90;;;;;;5024281;28;20468;-81
2022/03/29 07:13:45;;;;;;;16.33;11.30;;;12.00;57.40;;;;;;5016151;28;20430;-83
2022/03/29 07:16:14;;;;;;;12.90;10.90;;;12.10;57.50;;;;;;5021049;28;20449;-82
2022/03/29 07:18:41;;;;;;;12.73;10.63;;;12.00;57.40;;;;;;5020009;28;20453;-80
2022/03/29 07:21:10;;;;;;;11.77;10.57;;;12.10;58.00;;;;;;5020636;28;20836;-80
2022/03/29 07:23:37;;;;;;;11.87;10.57;;;12.30;57.80;;;;;;5022072;28;20438;-80
2022/03/29 07:26:04;;;;;;;12.20;10.60;;;12.50;57.70;;;;;;5043107;28;20846;-79
2022/03/29 07:28:30;;;;;;;16.13;12.20;;;12.50;57.50;;;;;;5025326;28;20453;-82
2022/03/29 07:30:57;;;;;;;15.10;11.40;;;12.60;57.30;;;;;;5021092;28;20481;-81
2022/03/29 07:33:24;;;;;;;11.47;10.37;;;12.60;57.50;;;;;;5036370;28;20869;-79
2022/03/29 07:35:51;;;;;;;14.30;12.77;;;12.70;57.70;;;;;;5045686;28;20452;-81
2022/03/29 07:38:20;;;;;;;12.17;10.97;;;12.80;58.20;;;;;;5049575;28;20449;-78
2022/03/29 07:40:46;;;;;;;15.30;12.07;;;12.90;57.60;;;;;;5040173;28;20496;-79
2022/03/29 07:43:14;;;;;;;14.87;12.33;;;13.10;57.10;;;;;;5025529;28;20451;-80
2022/03/29 07:45:41;;;;;;;14.73;12.20;;;13.30;56.70;;;;;;5034229;28;20477;-79
2022/03/29 07:48:09;;;;;;;14.33;12.23;;;13.50;56.70;;;;;;5043325;28;20449;-79
2022/03/29 07:50:36;;;;;;;12.83;11.10;;;13.60;57.20;;;;;;5032157;28;20570;-77
2022/03/29 07:53:05;;;;;;;12.07;10.93;;;13.80;57.70;;;;;;5027946;28;20456;-81
2022/03/29 07:55:34;;;;;;;13.37;11.60;;;13.90;57.70;;;;;;5025640;28;20493;-82
2022/03/29 07:58:01;;;;;;;13.77;12.23;;;14.00;57.60;;;;;;5031699;28;20458;-83
2022/03/29 08:00:35;;;;;;;13.80;12.23;;;14.10;56.80;;;;;;5017125;28;20490;-83
2022/03/29 08:03:04;;;;;;;14.83;11.47;;;14.10;56.60;;;;;;5019908;28;20453;-83
2022/03/29 08:05:31;;;;;;;17.45;13.25;;;14.10;56.50;;;;;;5019280;28;20460;-83
2022/03/29 08:07:58;;;;;;;13.40;10.93;;;14.10;56.40;;;;;;5018749;28;20462;-83
2022/03/29 08:10:27;;;;;;;19.80;13.10;;;14.20;56.50;;;;;;5022632;28;20999;-84
2022/03/29 08:12:56;;;;;;;13.27;11.70;;;14.20;55.90;;;;;;5038089;28;20465;-83
2022/03/29 08:15:23;;;;;;;16.63;13.33;;;14.20;55.30;;;;;;5019103;28;20477;-83
2022/03/29 08:17:50;;;;;;;14.10;11.43;;;14.20;55.60;;;;;;5018384;28;20451;-83
2022/03/29 08:20:17;;;;;;;16.80;12.30;;;14.20;55.40;;;;;;5018415;28;21032;-82
2022/03/29 08:22:46;;;;;;;17.07;12.10;;;14.00;55.00;;;;;;5018805;28;20446;-83
2022/03/29 08:25:14;;;;;;;14.80;11.87;;;14.10;55.70;;;;;;5018741;28;21042;-83
2022/03/29 08:27:41;;;;;;;12.30;11.07;;;14.20;55.30;;;;;;5005645;28;20498;-83
2022/03/29 08:30:11;;;;;;;15.47;13.60;;;14.30;55.30;;;;;;5040884;28;20466;-81
2022/03/29 08:32:39;;;;;;;14.17;12.60;;;14.50;54.80;;;;;;5046098;28;20454;-82
2022/03/29 08:35:08;;;;;;;13.53;11.97;;;14.70;54.90;;;;;;5026432;28;20460;-83
2022/03/29 08:37:36;;;;;;;15.43;12.57;;;14.90;53.90;;;;;;5023360;28;20448;-83
2022/03/29 08:40:04;;;;;;;12.20;10.87;;;15.10;55.00;;;;;;5035866;28;20476;-85
2022/03/29 08:42:30;;;;;;;16.57;12.40;;;15.30;53.70;;;;;;5042579;28;20446;-84
2022/03/29 08:44:58;;;;;;;14.77;13.30;;;15.30;53.80;;;;;;5026195;28;20458;-84
2022/03/29 08:47:27;;;;;;;13.27;11.33;;;15.40;53.60;;;;;;5023045;28;20483;-84
2022/03/29 08:49:53;;;;;;;15.70;13.40;;;15.70;54.00;;;;;;5040614;28;20939;-84
2022/03/29 08:52:21;;;;;;;12.70;10.67;;;15.90;53.80;;;;;;5031995;28;20460;-83
2022/03/29 08:54:49;;;;;;;17.97;12.47;;;16.20;53.00;;;;;;5016324;28;20449;-85
2022/03/29 08:57:16;;;;;;;12.47;10.73;;;16.40;52.30;;;;;;5017162;28;20452;-83
2022/03/29 08:59:43;;;;;;;15.17;12.13;;;16.50;52.50;;;;;;5019297;28;20873;-84
2022/03/29 09:02:11;;;;;;;19.40;10.70;;;16.70;51.80;;;;;;5027959;28;20465;-83
2022/03/29 09:04:39;;;;;;;10.87;9.80;;;16.80;51.80;;;;;;5034106;28;20447;-83
2022/03/29 09:07:06;;;;;;;17.77;13.17;;;16.90;51.20;;;;;;5037983;28;20494;-83
2022/03/29 09:09:34;;;;;;;16.30;11.60;;;17.10;50.60;;;;;;5032015;28;20449;-84
2022/03/29 09:12:13;;;;;;;14.03;11.47;;;17.30;50.40;;;;;;5025519;28;20457;-86
2022/03/29 09:14:55;;;;;;;13.83;10.80;;;17.40;49.70;;;;;;5030763;28;20473;-83
2022/03/29 09:17:31;;;;;;;12.43;11.17;;;17.50;50.40;;;;;;5043702;28;20474;-85
2022/03/29 09:20:00;;;;;;;15.30;11.30;;;17.30;48.90;;;;;;5034333;28;20480;-86
2022/03/29 09:22:40;;;;;;;13.17;11.43;;;17.20;49.70;;;;;;5024936;28;20457;-85
2022/03/29 09:25:08;;;;;;;12.20;11.00;;;17.20;49.60;;;;;;5037627;28;20459;-85
2022/03/29 09:27:56;;;;;;;14.00;12.70;;;17.40;49.00;;;;;;5044929;28;21009;-85
2022/03/29 09:30:24;;;;;;;13.60;12.30;;;17.20;47.60;;;;;;5035732;28;21376;-84
2022/03/29 09:32:57;;;;;;;15.00;11.77;;;17.40;47.70;;;;;;5043816;28;20452;-85
2022/03/29 09:35:25;;;;;;;14.80;11.17;;;17.40;47.90;;;;;;5042935;28;21015;-86
2022/03/29 09:37:52;;;;;;;13.07;10.93;;;17.60;48.80;;;;;;5039445;28;20453;-85
2022/03/29 09:40:19;;;;;;;17.03;12.83;;;17.90;49.20;;;;;;5023563;28;20491;-87
2022/03/29 09:43:03;;;;;;;15.47;11.63;;;18.00;48.30;;;;;;5023372;28;20463;-84
2022/03/29 09:45:41;;;;;;;16.20;11.83;;;18.20;47.90;;;;;;5024144;28;20453;-83
2022/03/29 09:48:31;;;;;;;12.47;10.77;;;18.30;47.70;;;;;;5023299;28;20997;-85
2022/03/29 09:51:15;;;;;;;13.53;11.23;;;18.50;46.70;;;;;;5003879;28;20486;-83
2022/03/29 09:53:44;;;;;;;15.13;11.90;;;18.60;46.70;;;;;;5014314;28;20439;-84
2022/03/29 09:56:12;;;;;;;15.47;11.40;;;18.90;47.10;;;;;;5036918;28;20480;-84
2022/03/29 09:58:39;;;;;;;12.60;11.30;;;19.00;46.90;;;;;;5026821;28;20568;-85
2022/03/29 10:11:07;;;;;;;15.67;12.57;;;19.40;46.40;;;;;;4952941;28;20468;-85
2022/03/29 10:13:36;;;;;;;14.87;12.60;;;19.50;46.00;;;;;;4960866;28;20479;-83
2022/03/29 10:16:03;;;;;;;11.77;10.60;;;19.60;47.20;;;;;;5016697;28;20451;-85
2022/03/29 10:18:30;;;;;;;14.03;12.50;;;19.80;46.00;;;;;;5026775;28;20492;-83
2022/03/29 10:20:58;;;;;;;19.40;12.60;;;20.10;46.40;;;;;;5023378;28;20468;-85
2022/03/29 10:23:29;;;;;;;18.50;12.10;;;20.40;47.50;;;;;;5026093;28;20478;-85
2022/03/29 10:25:57;;;;;;;15.70;12.25;;;20.50;45.40;;;;;;5026646;28;20453;-85
2022/03/29 10:28:27;;;;;;;14.83;13.07;;;20.60;45.40;;;;;;5035162;28;20226;-84
2022/03/29 10:30:54;;;;;;;12.83;11.50;;;20.60;44.50;;;;;;5045492;28;20479;-83
2022/03/29 10:33:23;;;;;;;14.80;11.63;;;20.60;45.10;;;;;;5034137;28;20450;-84
2022/03/29 10:36:09;;;;;;;14.00;12.03;;;20.70;45.80;;;;;;5030083;28;20465;-85
2022/03/29 10:38:57;;;;;;;14.50;12.90;;;20.80;45.40;;;;;;5035099;28;20858;-86
2022/03/29 10:41:50;;;;;;;15.00;13.43;;;21.00;45.20;;;;;;5045545;28;20440;-85
2022/03/29 10:44:19;;;;;;;12.60;11.30;;;21.30;45.80;;;;;;5021541;28;20877;-84
2022/03/29 10:46:48;;;;;;;13.17;11.87;;;21.50;43.70;;;;;;5017505;28;20479;-84
2022/03/29 10:49:20;;;;;;;13.17;11.47;;;21.60;43.00;;;;;;5034098;28;20450;-85
2022/03/29 10:51:47;;;;;;;12.63;11.37;;;21.70;44.10;;;;;;5035677;28;20472;-84
2022/03/29 10:54:32;;;;;;;12.30;11.30;;;21.70;42.20;;;;;;5019587;28;20461;-84
2022/03/29 10:57:01;;;;;;;13.93;12.43;;;21.40;41.80;;;;;;5027849;28;20449;-86
2022/03/29 10:59:30;;;;;;;16.70;12.00;;;21.30;43.30;;;;;;5045227;28;20452;-86
2022/03/29 11:02:20;;;;;;;15.73;13.30;;;21.40;44.00;;;;;;5043708;28;20463;-86
2022/03/29 11:05:06;;;;;;;15.87;14.33;;;21.30;43.50;;;;;;5006461;28;20468;-85
2022/03/29 11:07:35;;;;;;;18.30;14.13;;;21.50;44.90;;;;;;5011024;28;20955;-85
2022/03/29 11:10:11;;;;;;;19.03;14.20;;;21.90;44.60;;;;;;5047686;28;20841;-85
2022/03/29 11:12:40;;;;;;;19.20;14.20;;;22.10;44.60;;;;;;5027202;28;20463;-86
2022/03/29 11:15:46;;;;;;;19.13;14.23;;;22.30;44.20;;;;;;5034874;28;20449;-85
2022/03/29 11:18:40;;;;;;;16.60;13.33;;;22.30;43.70;;;;;;5044372;28;20437;-86
2022/03/29 11:21:07;;;;;;;23.03;15.53;;;22.40;42.90;;;;;;5027325;28;20900;-85
2022/03/29 11:23:35;;;;;;;15.30;13.53;;;22.40;43.00;;;;;;5024567;28;20456;-86
2022/03/29 11:26:08;;;;;;;16.47;13.67;;;22.10;43.20;;;;;;5036709;28;20470;-81
2022/03/29 11:28:35;;;;;;;15.07;13.37;;;21.70;43.20;;;;;;5040710;28;20485;-83
2022/03/29 11:31:02;;;;;;;16.90;13.97;;;21.40;43.10;;;;;;5027476;28;20483;-86
2022/03/29 11:33:33;;;;;;;16.97;14.07;;;21.50;44.60;;;;;;5035658;28;20449;-85
2022/03/29 11:36:02;;;;;;;19.63;13.50;;;21.50;44.10;;;;;;5041142;28;20455;-84
2022/03/29 11:38:33;;;;;;;15.60;13.60;;;21.50;44.60;;;;;;5028353;28;20451;-84
2022/03/29 11:40:59;;;;;;;16.40;13.80;;;21.40;43.60;;;;;;5019721;28;20507;-85
2022/03/29 11:43:26;;;;;;;15.77;14.00;;;21.50;44.10;;;;;;5031874;28;20456;-84
2022/03/29 11:45:55;;;;;;;18.17;14.97;;;21.70;44.20;;;;;;5041292;28;20538;-83
2022/03/29 11:48:25;;;;;;;17.30;15.50;;;22.00;43.60;;;;;;5031565;28;20480;-85
2022/03/29 11:50:54;;;;;;;16.90;13.83;;;22.20;43.30;;;;;;5019862;28;20567;-85
2022/03/29 11:53:24;;;;;;;20.50;17.00;;;22.50;43.00;;;;;;5025156;28;20435;-86
2022/03/29 11:56:02;;;;;;;17.23;14.60;;;22.60;42.40;;;;;;5027184;28;20460;-85
2022/03/29 11:58:31;;;;;;;17.87;14.80;;;22.70;42.60;;;;;;5043525;28;20509;-85
2022/03/29 12:01:03;;;;;;;16.20;14.57;;;22.80;42.60;;;;;;5039978;28;20490;-86
2022/03/29 12:03:33;;;;;;;15.70;13.97;;;22.90;41.80;;;;;;5025432;28;20461;-84
2022/03/29 12:06:08;;;;;;;14.03;12.23;;;22.90;41.50;;;;;;5025743;28;20454;-83
2022/03/29 12:08:47;;;;;;;17.90;14.87;;;22.80;41.20;;;;;;5042394;28;20498;-85
2022/03/29 12:11:15;;;;;;;17.20;13.40;;;22.60;40.90;;;;;;5037412;28;20474;-86
2022/03/29 12:13:43;;;;;;;17.30;13.53;;;22.40;41.00;;;;;;5021299;28;20473;-84
2022/03/29 12:16:21;;;;;;;16.60;14.10;;;22.10;41.60;;;;;;5020435;28;20455;-84
2022/03/29 12:18:49;;;;;;;16.43;13.60;;;21.80;41.70;;;;;;5019876;28;20436;-84
2022/03/29 12:21:40;;;;;;;17.60;14.63;;;21.60;42.30;;;;;;5043810;28;20484;-83
2022/03/29 12:24:10;;;;;;;15.33;13.47;;;21.40;42.10;;;;;;5046217;28;20494;-84
2022/03/29 12:26:42;;;;;;;16.00;12.80;;;21.40;42.80;;;;;;5026148;28;20965;-84
2022/03/29 12:29:11;;;;;;;13.93;12.40;;;21.60;42.20;;;;;;5019012;28;20482;-85
2022/03/29 12:31:40;;;;;;;18.23;13.73;;;21.70;42.20;;;;;;5034385;28;20495;-85
2022/03/29 12:34:08;;;;;;;17.53;13.53;;;22.00;42.50;;;;;;5041363;28;20456;-84
2022/03/29 12:36:38;;;;;;;15.67;13.17;;;22.20;39.90;;;;;;5026575;28;20468;-84
2022/03/29 12:39:06;;;;;;;12.97;11.53;;;22.30;41.00;;;;;;5022537;28;20547;-85
2022/03/29 12:41:41;;;;;;;13.63;12.30;;;22.30;40.20;;;;;;5021954;28;20476;-85
2022/03/29 12:44:09;;;;;;;17.30;13.27;;;22.30;39.60;;;;;;5029291;28;20462;-83
2022/03/29 12:46:37;;;;;;;14.57;13.03;;;22.10;38.70;;;;;;5054002;28;20453;-84
2022/03/29 12:49:04;;;;;;;14.10;12.67;;;21.90;39.40;;;;;;5053629;28;20486;-85
2022/03/29 12:51:33;;;;;;;14.13;12.67;;;21.60;39.20;;;;;;5026789;28;20530;-83
2022/03/29 12:54:03;;;;;;;16.33;14.73;;;21.30;39.00;;;;;;5020800;28;20460;-85